Time;durP1;ratioP1;P1;durP2;ratioP2;P2;SDS_P1;SDS_P2;PMS_P1;PMS_P2;Temp;Humidity;BMP_temperature;BMP_pressure;BME280_temperature;BME280_humidity;BME280_pressure;Samples;Min_cycle;Max_cycle;Signal;HPM_P1;HPM_P2
2024/01/18 00:02:06;;;;;;;13.60;8.60;;;;;;;4.11;83.91;96055.77;226682;1272;22939;-76
2024/01/18 00:07:09;;;;;;;12.00;8.00;;;;;;;4.24;83.26;96062.33;226784;1272;22551;-75
2024/01/18 00:12:12;;;;;;;12.60;8.40;;;;;;;4.31;83.10;96049.90;226568;1272;22538;-75
2024/01/18 00:17:14;;;;;;;11.80;7.60;;;;;;;4.33;82.90;96044.05;226796;1269;22678;-75
2024/01/18 00:22:16;;;;;;;12.80;8.30;;;;;;;4.35;83.28;96048.74;226545;1272;22533;-75
2024/01/18 00:27:18;;;;;;;12.60;8.80;;;;;;;4.39;83.41;96048.63;226848;1269;25290;-75
2024/01/18 00:32:20;;;;;;;12.90;8.30;;;;;;;4.41;83.04;96055.94;226625;1272;22533;-75
2024/01/18 00:37:23;;;;;;;14.10;8.80;;;;;;;4.41;83.24;96057.83;226576;1272;24288;-75
2024/01/18 00:42:25;;;;;;;13.60;9.30;;;;;;;4.42;83.33;96054.15;226793;1270;24231;-76
2024/01/18 00:47:27;;;;;;;12.00;8.80;;;;;;;4.48;83.49;96061.67;226813;1269;22555;-76
2024/01/18 00:52:29;;;;;;;11.80;7.70;;;;;;;4.54;83.27;96068.95;226771;1263;24385;-75
2024/01/18 00:57:33;;;;;;;12.90;7.60;;;;;;;4.64;83.31;96069.13;226666;1272;22740;-75
2024/01/18 01:02:35;;;;;;;11.40;7.80;;;;;;;4.73;83.40;96065.98;226766;1272;22566;-75
2024/01/18 01:07:37;;;;;;;11.70;7.90;;;;;;;4.76;83.20;96063.27;226733;1272;22550;-75
2024/01/18 01:12:39;;;;;;;12.40;9.40;;;;;;;4.75;83.07;96054.28;226797;1261;22656;-75
2024/01/18 01:17:43;;;;;;;13.20;9.60;;;;;;;4.73;83.00;96057.09;226547;1272;25356;-75
2024/01/18 01:22:45;;;;;;;13.50;9.40;;;;;;;4.72;83.18;96067.64;226769;1270;22598;-75
2024/01/18 01:27:47;;;;;;;12.70;9.10;;;;;;;4.78;83.76;96064.02;226801;1270;22574;-75
2024/01/18 01:32:49;;;;;;;13.00;10.00;;;;;;;4.80;83.67;96058.23;226590;1272;22655;-75
2024/01/18 01:37:51;;;;;;;12.50;9.30;;;;;;;4.83;83.59;96049.04;226557;1272;22540;-76
2024/01/18 01:42:53;;;;;;;12.50;9.90;;;;;;;4.83;83.58;96041.31;226624;1272;22556;-76
2024/01/18 01:47:57;;;;;;;14.30;11.20;;;;;;;4.80;83.57;96034.02;226771;1269;23155;-76
2024/01/18 01:52:59;;;;;;;14.90;10.80;;;;;;;4.79;83.58;96043.85;226776;1271;22474;-76
2024/01/18 01:58:02;;;;;;;16.20;10.00;;;;;;;4.77;83.49;96053.89;226788;1272;22981;-76
2024/01/18 02:03:04;;;;;;;14.70;11.00;;;;;;;4.72;83.62;96051.52;226836;1269;22546;-76
2024/01/18 02:08:06;;;;;;;14.00;10.40;;;;;;;4.67;83.89;96043.79;226812;1270;22579;-75
2024/01/18 02:13:09;;;;;;;14.60;10.90;;;;;;;4.63;83.71;96036.59;226591;1258;22545;-76
2024/01/18 02:18:11;;;;;;;13.70;9.70;;;;;;;4.59;84.06;96041.94;226639;1272;22548;-76
2024/01/18 02:23:14;;;;;;;14.20;10.00;;;;;;;4.55;83.90;96037.69;226796;1270;22606;-75
2024/01/18 02:28:16;;;;;;;14.40;10.10;;;;;;;4.51;83.89;96037.32;226845;1270;22537;-76
2024/01/18 02:33:18;;;;;;;12.70;9.10;;;;;;;4.49;84.29;96028.61;226472;1272;24268;-75
2024/01/18 02:38:20;;;;;;;13.20;9.40;;;;;;;4.43;84.01;96031.42;226596;1272;25291;-75
2024/01/18 02:43:22;;;;;;;14.00;9.40;;;;;;;4.38;84.52;96031.44;226825;1251;23696;-76
2024/01/18 02:48:25;;;;;;;13.50;9.00;;;;;;;4.35;84.47;96027.39;226868;1269;22547;-76
2024/01/18 02:53:27;;;;;;;14.80;9.80;;;;;;;4.35;84.77;96027.91;226818;1270;22562;-76
2024/01/18 02:58:29;;;;;;;13.60;9.50;;;;;;;4.33;84.53;96022.77;226802;1270;26008;-76
2024/01/18 03:03:34;;;;;;;10.80;8.30;;;;;;;4.33;84.29;96028.14;226805;1253;22540;-76
2024/01/18 03:08:36;;;;;;;10.60;8.40;;;;;;;4.31;84.89;96026.10;226820;1270;24227;-76
2024/01/18 03:13:38;;;;;;;10.60;8.70;;;;;;;4.30;84.89;96033.84;226829;1270;22551;-76
2024/01/18 03:18:43;;;;;;;10.20;8.10;;;;;;;4.27;84.94;96034.15;226806;1270;22541;-76
2024/01/18 03:23:45;;;;;;;10.90;8.80;;;;;;;4.24;85.24;96044.04;226668;1254;25814;-76
2024/01/18 03:28:47;;;;;;;10.70;7.80;;;;;;;4.26;85.25;96050.65;226504;1272;22909;-76
2024/01/18 03:33:49;;;;;;;10.80;8.10;;;;;;;4.29;85.48;96059.86;226555;1272;22536;-77
2024/01/18 03:38:51;;;;;;;11.30;8.50;;;;;;;4.32;85.43;96070.08;226609;1270;22540;-75
2024/01/18 03:43:53;;;;;;;11.10;7.90;;;;;;;4.32;85.39;96071.23;226526;1270;330902;-75
2024/01/18 03:48:55;;;;;;;11.10;8.70;;;;;;;4.32;85.72;96071.23;226852;1272;22533;-76
2024/01/18 03:53:58;;;;;;;12.50;8.60;;;;;;;4.32;85.73;96079.41;226806;1260;22545;-76
2024/01/18 03:59:01;;;;;;;11.20;8.40;;;;;;;4.33;85.64;96081.61;226800;1267;22537;-76
2024/01/18 04:04:03;;;;;;;11.20;8.40;;;;;;;4.30;85.18;96083.53;226677;1254;22552;-76
2024/01/18 04:09:06;;;;;;;10.90;8.00;;;;;;;4.27;85.49;96066.92;226631;1272;22986;-76
2024/01/18 04:14:08;;;;;;;11.40;8.40;;;;;;;4.25;85.89;96059.30;226860;1272;23042;-75
2024/01/18 04:19:10;;;;;;;9.70;7.80;;;;;;;4.27;85.74;96071.47;226544;1272;22545;-75
2024/01/18 04:24:12;;;;;;;10.70;8.50;;;;;;;4.28;86.19;96070.62;226639;1272;25342;-75
2024/01/18 04:29:14;;;;;;;11.40;7.90;;;;;;;4.31;86.08;96063.95;226565;1267;22557;-76
2024/01/18 04:34:16;;;;;;;12.20;9.00;;;;;;;4.37;86.74;96062.41;226822;1272;22541;-75
2024/01/18 04:39:18;;;;;;;11.40;8.80;;;;;;;4.45;86.85;96064.89;226599;1272;22536;-75
2024/01/18 04:44:20;;;;;;;11.70;8.70;;;;;;;4.52;86.79;96073.06;226543;1272;22704;-75
2024/01/18 04:49:23;;;;;;;13.10;9.40;;;;;;;4.59;86.97;96084.18;226591;1257;22557;-76
2024/01/18 04:54:25;;;;;;;12.30;9.30;;;;;;;4.64;86.97;96094.11;226833;1269;25177;-76
2024/01/18 04:59:27;;;;;;;12.00;9.30;;;;;;;4.69;87.18;96098.81;226841;1269;22534;-75
2024/01/18 05:04:29;;;;;;;10.80;7.90;;;;;;;4.76;87.06;96103.40;226760;1270;22607;-75
2024/01/18 05:09:31;;;;;;;12.10;9.00;;;;;;;4.81;87.21;96108.25;226630;1272;22542;-74
2024/01/18 05:14:34;;;;;;;14.40;10.10;;;;;;;4.84;87.29;96112.09;226812;1270;25362;-75
2024/01/18 05:19:36;;;;;;;15.10;9.50;;;;;;;4.85;86.93;96119.37;226613;1267;25472;-75
2024/01/18 05:24:40;;;;;;;14.90;10.00;;;;;;;4.86;87.26;96123.90;226851;1267;22572;-76
2024/01/18 05:29:43;;;;;;;13.30;9.50;;;;;;;4.86;87.45;96130.46;226822;1270;25237;-76
2024/01/18 05:34:45;;;;;;;11.60;9.10;;;;;;;4.86;88.10;96141.77;226647;1271;22561;-76
2024/01/18 05:39:47;;;;;;;14.00;9.70;;;;;;;4.84;87.84;96149.75;226608;1270;24413;-75
2024/01/18 05:44:50;;;;;;;14.40;9.80;;;;;;;4.82;87.66;96151.50;226648;1270;22553;-75
2024/01/18 05:49:52;;;;;;;12.50;8.90;;;;;;;4.78;87.97;96153.83;226841;1269;22894;-75
2024/01/18 05:54:54;;;;;;;12.30;8.70;;;;;;;4.75;88.06;96149.67;226770;1254;22570;-74
2024/01/18 05:59:56;;;;;;;15.60;9.90;;;;;;;4.74;88.28;96157.34;226628;1272;22903;-75
2024/01/18 06:04:58;;;;;;;12.40;9.60;;;;;;;4.71;88.61;96165.66;226783;1269;22554;-75
2024/01/18 06:10:00;;;;;;;12.70;8.80;;;;;;;4.67;88.46;96164.45;226854;1251;22626;-76
2024/01/18 06:15:02;;;;;;;13.40;9.40;;;;;;;4.62;88.25;96156.64;226823;1268;22529;-76
2024/01/18 06:20:06;;;;;;;15.00;11.10;;;;;;;4.57;88.80;96159.87;226813;1254;23013;-75
2024/01/18 06:25:08;;;;;;;14.30;9.70;;;;;;;4.54;88.66;96179.84;226625;1270;23006;-76
2024/01/18 06:30:11;;;;;;;14.20;10.50;;;;;;;4.52;88.68;96185.36;226591;1272;22859;-76
2024/01/18 06:35:13;;;;;;;14.80;10.40;;;;;;;4.50;88.84;96191.85;226686;1270;23717;-76
2024/01/18 06:40:17;;;;;;;14.30;11.30;;;;;;;4.50;88.83;96205.85;226590;1272;22580;-76
2024/01/18 06:45:19;;;;;;;13.10;9.80;;;;;;;4.49;88.82;96211.20;226609;1270;22544;-76
2024/01/18 06:50:22;;;;;;;13.40;10.40;;;;;;;4.45;88.46;96221.58;226488;1267;22700;-75
2024/01/18 06:55:24;;;;;;;14.00;10.40;;;;;;;4.43;88.97;96231.45;226236;1266;23026;-75
2024/01/18 07:00:26;;;;;;;16.50;11.70;;;;;;;4.43;89.21;96237.20;226290;1250;23621;-77
2024/01/18 07:05:28;;;;;;;16.10;11.60;;;;;;;4.39;88.83;96234.98;226223;1253;22930;-76
2024/01/18 07:10:30;;;;;;;13.10;10.20;;;;;;;4.35;89.05;96231.90;226194;1260;22551;-79
2024/01/18 07:15:32;;;;;;;21.00;14.00;;;;;;;4.34;89.34;96238.98;226031;1266;22543;-76
2024/01/18 07:20:34;;;;;;;12.80;9.40;;;;;;;4.36;89.29;96251.08;226112;1260;26971;-78
2024/01/18 07:25:36;;;;;;;12.30;9.20;;;;;;;4.34;88.66;96263.79;226383;1250;22544;-78
2024/01/18 07:30:39;;;;;;;10.20;7.30;;;;;;;4.33;88.54;96277.06;226160;1265;22567;-74
2024/01/18 07:42:41;;;;;;;10.50;8.00;;;;;;;4.29;88.54;96289.09;219061;1305;545034;-74
2024/01/18 07:47:44;;;;;;;13.60;10.50;;;;;;;4.21;88.50;96296.99;224029;1288;22591;-76
2024/01/18 07:52:46;;;;;;;17.90;13.20;;;;;;;4.14;88.15;96302.34;223900;1282;180413;-76
2024/01/18 07:57:48;;;;;;;23.20;15.90;;;;;;;4.03;87.83;96314.93;224390;1276;25445;-76
2024/01/18 08:02:50;;;;;;;23.50;16.00;;;;;;;3.89;87.57;96325.51;224695;1285;22545;-75
2024/01/18 08:07:52;;;;;;;21.70;15.90;;;;;;;3.75;87.62;96336.53;224837;1280;22584;-76
2024/01/18 08:12:54;;;;;;;18.90;13.90;;;;;;;3.63;87.54;96346.80;224613;1281;22567;-75
2024/01/18 08:17:56;;;;;;;14.80;11.70;;;;;;;3.51;87.43;96360.12;224580;1287;22604;-75
2024/01/18 08:22:58;;;;;;;25.80;17.40;;;;;;;3.41;87.45;96368.07;224660;1268;22611;-74
2024/01/18 08:28:00;;;;;;;22.70;16.30;;;;;;;3.32;87.28;96365.07;224650;1264;22560;-75
2024/01/18 08:33:03;;;;;;;19.90;14.60;;;;;;;3.23;87.50;96372.39;224665;1280;22550;-76
2024/01/18 08:38:05;;;;;;;18.30;13.30;;;;;;;3.18;87.42;96367.64;224602;1279;22588;-76
2024/01/18 08:43:07;;;;;;;18.50;13.00;;;;;;;3.13;87.38;96382.45;224983;1280;22596;-76
2024/01/18 08:48:10;;;;;;;19.90;13.50;;;;;;;3.07;87.32;96391.88;225189;1281;22567;-75
2024/01/18 08:53:13;;;;;;;18.50;13.30;;;;;;;2.99;87.27;96401.49;225105;1278;22580;-76
2024/01/18 08:58:16;;;;;;;21.20;15.90;;;;;;;2.95;87.31;96412.23;225137;1278;25937;-76
2024/01/18 09:03:18;;;;;;;22.20;14.80;;;;;;;2.90;87.30;96421.20;224877;1261;22548;-77
2024/01/18 09:08:22;;;;;;;23.50;15.70;;;;;;;2.85;87.24;96430.48;224977;1262;22578;-76
2024/01/18 09:13:25;;;;;;;28.90;19.00;;;;;;;2.81;87.39;96443.71;224849;1277;22595;-78
2024/01/18 09:18:27;;;;;;;25.30;17.90;;;;;;;2.77;87.55;96456.02;224749;1276;22582;-78
2024/01/18 09:23:29;;;;;;;27.10;18.80;;;;;;;2.75;87.55;96460.54;224729;1276;25398;-77
2024/01/18 09:28:31;;;;;;;25.50;17.40;;;;;;;2.73;87.64;96457.45;224718;1260;22574;-79
2024/01/18 09:33:33;;;;;;;25.30;17.10;;;;;;;2.73;87.68;96455.13;225084;1279;22556;-77
2024/01/18 09:38:36;;;;;;;26.90;18.80;;;;;;;2.77;87.69;96464.44;225119;1262;22569;-76
2024/01/18 09:43:39;;;;;;;23.60;15.10;;;;;;;2.78;87.63;96465.98;224691;1272;22566;-77
2024/01/18 09:48:42;;;;;;;23.00;15.80;;;;;;;2.79;87.56;96476.77;224620;1277;22645;-77
2024/01/18 09:53:48;;;;;;;25.40;17.00;;;;;;;2.77;87.44;96476.16;225793;1269;22586;-77
2024/01/18 09:58:52;;;;;;;25.20;18.00;;;;;;;2.77;87.55;96467.98;225985;1261;22554;-76
2024/01/18 10:03:54;;;;;;;29.50;20.10;;;;;;;2.80;87.59;96480.02;226231;1254;22654;-78
2024/01/18 10:08:56;;;;;;;36.00;22.80;;;;;;;2.79;87.50;96480.82;226042;1265;22577;-77
2024/01/18 10:13:59;;;;;;;36.60;21.80;;;;;;;2.75;87.42;96480.60;226268;1268;22749;-77
2024/01/18 10:19:03;;;;;;;39.10;22.50;;;;;;;2.70;87.36;96470.50;226393;1269;22548;-77
2024/01/18 10:24:11;;;;;;;35.80;21.20;;;;;;;2.66;87.26;96455.18;226137;1270;22675;-77
2024/01/18 10:29:13;;;;;;;32.60;19.90;;;;;;;2.63;87.33;96463.08;226113;1261;22650;-77
2024/01/18 10:34:15;;;;;;;40.00;23.20;;;;;;;2.57;87.19;96471.86;226186;1255;25366;-77
2024/01/18 10:39:18;;;;;;;38.50;23.00;;;;;;;2.52;87.09;96472.90;226215;1264;22547;-77
2024/01/18 10:44:20;;;;;;;40.30;24.00;;;;;;;2.51;87.07;96459.10;226408;1273;22553;-77
2024/01/18 10:49:25;;;;;;;40.10;24.30;;;;;;;2.50;87.11;96473.73;226097;1270;22570;-75
2024/01/18 10:54:28;;;;;;;36.20;22.30;;;;;;;2.52;87.23;96478.91;226065;1270;22555;-76
2024/01/18 10:59:38;;;;;;;32.30;19.50;;;;;;;2.57;87.08;96483.86;226080;1261;22712;-77
2024/01/18 11:04:40;;;;;;;33.90;20.90;;;;;;;2.59;87.01;96481.66;226346;1268;22565;-77
2024/01/18 11:09:44;;;;;;;25.00;16.70;;;;;;;2.59;86.88;96485.84;226396;1255;22575;-77
2024/01/18 11:14:47;;;;;;;25.20;16.00;;;;;;;2.54;86.72;96488.38;226308;1258;22556;-76
2024/01/18 11:19:49;;;;;;;23.90;15.30;;;;;;;2.47;86.50;96485.83;226006;1267;22557;-76
2024/01/18 11:25:00;;;;;;;25.40;16.50;;;;;;;2.43;86.69;96489.52;226065;1264;22545;-76
2024/01/18 11:30:04;;;;;;;26.70;16.80;;;;;;;2.40;86.48;96483.17;225977;1257;22565;-75
2024/01/18 11:35:09;;;;;;;22.90;15.20;;;;;;;2.36;86.59;96485.23;226323;1270;22553;-75
2024/01/18 11:40:12;;;;;;;19.80;13.90;;;;;;;2.36;86.71;96492.63;226147;1270;25344;-75
2024/01/18 11:45:16;;;;;;;17.20;12.70;;;;;;;2.38;86.71;96492.66;226063;1273;22558;-76
2024/01/18 11:50:19;;;;;;;13.30;10.00;;;;;;;2.40;86.54;96489.50;225986;1267;24237;-76
2024/01/18 11:55:21;;;;;;;15.80;10.00;;;;;;;2.38;86.32;96493.75;226144;1268;22556;-75
2024/01/18 12:00:23;;;;;;;11.70;9.90;;;;;;;2.35;86.16;96490.86;226294;1267;22625;-78
2024/01/18 12:05:26;;;;;;;13.00;10.10;;;;;;;2.34;86.38;96482.27;226201;1270;22543;-75
2024/01/18 12:10:29;;;;;;;15.00;11.10;;;;;;;2.34;86.28;96475.14;226174;1265;25295;-76
2024/01/18 12:15:32;;;;;;;16.10;11.80;;;;;;;2.31;86.25;96467.02;226433;1257;22564;-76
2024/01/18 12:20:35;;;;;;;17.60;13.40;;;;;;;2.27;86.26;96472.16;226292;1269;22564;-76
2024/01/18 12:25:37;;;;;;;22.90;15.70;;;;;;;2.22;86.24;96480.85;226349;1269;23436;-77
2024/01/18 12:30:42;;;;;;;23.10;15.30;;;;;;;2.13;86.22;96487.80;226346;1270;22565;-76
2024/01/18 12:35:46;;;;;;;21.00;14.60;;;;;;;2.06;86.17;96484.00;226350;1253;22572;-76
2024/01/18 12:40:48;;;;;;;21.80;15.60;;;;;;;2.05;86.28;96472.86;225930;1268;22571;-76
2024/01/18 12:45:51;;;;;;;24.70;15.90;;;;;;;2.09;86.65;96468.15;225893;1271;22566;-76
2024/01/18 12:50:54;;;;;;;25.10;17.80;;;;;;;2.09;86.35;96482.52;226045;1271;22557;-76
2024/01/18 12:55:56;;;;;;;29.80;19.00;;;;;;;2.04;86.36;96484.44;226183;1269;22551;-74
2024/01/18 13:00:58;;;;;;;31.90;20.70;;;;;;;2.00;86.34;96495.41;226167;1261;25386;-74
2024/01/18 13:06:04;;;;;;;35.50;22.10;;;;;;;1.97;86.52;96493.27;226320;1254;22545;-73
2024/01/18 13:11:07;;;;;;;39.90;23.10;;;;;;;1.95;86.56;96492.20;225923;1266;25068;-73
2024/01/18 13:16:09;;;;;;;40.30;24.20;;;;;;;1.92;86.49;96492.36;226106;1273;22553;-74
2024/01/18 13:21:11;;;;;;;36.30;22.90;;;;;;;1.88;86.38;96497.59;226047;1266;22542;-73
2024/01/18 13:26:13;;;;;;;35.60;22.90;;;;;;;1.84;86.43;96496.58;226155;1270;22564;-78
2024/01/18 13:31:15;;;;;;;32.20;22.00;;;;;;;1.76;86.54;96498.14;226040;1267;22564;-75
2024/01/18 13:36:17;;;;;;;33.60;21.60;;;;;;;1.72;86.48;96506.47;225911;1271;22665;-75
2024/01/18 13:41:19;;;;;;;37.30;22.50;;;;;;;1.69;86.70;96520.18;226292;1270;22752;-74
2024/01/18 13:46:22;;;;;;;38.10;24.60;;;;;;;1.67;86.66;96525.80;226142;1269;25498;-74
2024/01/18 13:51:24;;;;;;;39.20;24.20;;;;;;;1.63;86.67;96520.93;226175;1265;25317;-74
2024/01/18 13:56:26;;;;;;;37.60;23.50;;;;;;;1.60;86.81;96521.52;226048;1269;22544;-75
2024/01/18 14:01:28;;;;;;;33.40;22.50;;;;;;;1.58;86.92;96520.38;226141;1273;22550;-74
2024/01/18 14:06:30;;;;;;;33.90;21.50;;;;;;;1.58;87.05;96523.98;226401;1254;22565;-74
2024/01/18 14:11:32;;;;;;;34.60;21.60;;;;;;;1.56;87.13;96528.23;226246;1271;23729;-74
2024/01/18 14:16:36;;;;;;;32.90;22.60;;;;;;;1.54;87.25;96535.66;226405;1255;22580;-76
2024/01/18 14:21:38;;;;;;;32.60;21.40;;;;;;;1.52;87.32;96539.88;226373;1270;25303;-74
2024/01/18 14:26:40;;;;;;;34.80;22.70;;;;;;;1.48;87.40;96539.16;226422;1276;22553;-74
2024/01/18 14:31:43;;;;;;;32.30;21.30;;;;;;;1.44;87.23;96554.75;226362;1271;22537;-74
2024/01/18 14:36:44;;;;;;;31.70;21.40;;;;;;;1.40;87.43;96549.63;226259;1258;22548;-74
2024/01/18 14:41:46;;;;;;;32.50;22.70;;;;;;;1.37;87.55;96543.94;226409;1268;22679;-73
2024/01/18 14:46:48;;;;;;;33.90;22.00;;;;;;;1.34;87.63;96555.73;226293;1270;22575;-74
2024/01/18 14:51:50;;;;;;;38.90;23.20;;;;;;;1.27;87.56;96571.50;226394;1271;22568;-74
2024/01/18 14:56:53;;;;;;;40.20;24.00;;;;;;;1.21;87.70;96576.52;226418;1273;22553;-75
2024/01/18 15:01:56;;;;;;;30.60;20.70;;;;;;;1.18;87.66;96580.05;226162;1271;22555;-74
2024/01/18 15:06:59;;;;;;;29.30;19.90;;;;;;;1.12;87.88;96588.23;226056;1273;22547;-75
2024/01/18 15:12:02;;;;;;;31.80;22.00;;;;;;;1.05;87.73;96602.25;226103;1269;22536;-74
2024/01/18 15:17:04;;;;;;;25.90;16.30;;;;;;;1.00;87.95;96604.40;226231;1271;25291;-75
2024/01/18 15:22:06;;;;;;;29.70;21.40;;;;;;;0.94;87.88;96598.80;226419;1273;22653;-74
2024/01/18 15:27:09;;;;;;;28.20;20.00;;;;;;;0.89;88.03;96593.90;226369;1274;22587;-75
2024/01/18 15:32:11;;;;;;;28.40;20.10;;;;;;;0.83;88.12;96604.63;226458;1274;22579;-74
2024/01/18 15:37:14;;;;;;;26.10;17.10;;;;;;;0.78;88.14;96613.02;226569;1253;22559;-75
2024/01/18 15:42:16;;;;;;;27.70;17.40;;;;;;;0.74;88.45;96617.06;226502;1271;22601;-73
2024/01/18 15:47:18;;;;;;;27.10;16.70;;;;;;;0.71;88.61;96628.27;226549;1274;22543;-74
2024/01/18 15:52:20;;;;;;;28.70;18.70;;;;;;;0.68;88.58;96644.17;226640;1274;22574;-75
2024/01/18 15:57:23;;;;;;;26.90;16.90;;;;;;;0.66;88.60;96663.41;226657;1273;22548;-74
2024/01/18 16:02:25;;;;;;;23.70;15.70;;;;;;;0.66;88.96;96676.48;226662;1271;22555;-74
2024/01/18 16:07:27;;;;;;;25.70;17.60;;;;;;;0.64;88.76;96675.20;226660;1274;22546;-74
2024/01/18 16:12:32;;;;;;;24.40;17.30;;;;;;;0.59;88.87;96682.69;226586;1271;22609;-74
2024/01/18 16:17:35;;;;;;;26.40;17.00;;;;;;;0.53;88.70;96695.47;226609;1276;22565;-74
2024/01/18 16:22:37;;;;;;;29.30;19.20;;;;;;;0.49;88.94;96706.55;226618;1271;22592;-75
2024/01/18 16:27:39;;;;;;;34.20;20.90;;;;;;;0.45;89.03;96714.27;226470;1276;25045;-74
2024/01/18 16:32:41;;;;;;;37.30;23.80;;;;;;;0.43;89.02;96714.93;226600;1274;22842;-74
2024/01/18 16:37:43;;;;;;;38.70;25.30;;;;;;;0.39;89.08;96721.38;226643;1274;22585;-76
2024/01/18 16:42:45;;;;;;;38.90;24.90;;;;;;;0.38;89.15;96735.17;226703;1274;26089;-75
2024/01/18 16:47:47;;;;;;;38.60;25.20;;;;;;;0.36;89.40;96744.06;226668;1271;22553;-73
2024/01/18 16:52:51;;;;;;;40.40;25.30;;;;;;;0.33;89.14;96761.83;226667;1274;22558;-73
2024/01/18 16:57:53;;;;;;;40.00;24.50;;;;;;;0.31;89.56;96771.19;226637;1274;22618;-74
2024/01/18 17:02:55;;;;;;;41.40;25.60;;;;;;;0.27;89.66;96773.09;226683;1270;22591;-74
2024/01/18 17:07:57;;;;;;;41.10;25.60;;;;;;;0.25;89.55;96782.70;226658;1271;22554;-74
2024/01/18 17:12:59;;;;;;;40.10;25.20;;;;;;;0.23;89.65;96791.09;226613;1271;22608;-75
2024/01/18 17:18:01;;;;;;;34.60;20.90;;;;;;;0.20;89.33;96812.16;226600;1273;22547;-75
2024/01/18 17:23:03;;;;;;;33.50;21.10;;;;;;;0.14;89.31;96833.66;226622;1268;24241;-75
2024/01/18 17:28:06;;;;;;;36.70;22.40;;;;;;;0.04;89.13;96842.35;226640;1274;25557;-76
2024/01/18 17:33:08;;;;;;;36.30;22.50;;;;;;;-0.05;89.02;96846.67;226644;1268;23704;-76
2024/01/18 17:38:11;;;;;;;40.00;23.60;;;;;;;-0.13;88.89;96854.81;226587;1274;22542;-76
2024/01/18 17:43:13;;;;;;;42.10;25.10;;;;;;;-0.22;88.81;96872.27;226674;1271;22529;-76
2024/01/18 17:48:15;;;;;;;44.10;25.60;;;;;;;-0.31;89.07;96890.53;226624;1276;22547;-76
2024/01/18 17:53:17;;;;;;;43.80;24.50;;;;;;;-0.38;88.96;96905.94;226681;1274;22646;-76
2024/01/18 17:58:19;;;;;;;50.00;29.80;;;;;;;-0.46;89.00;96914.71;226669;1273;22550;-76
2024/01/18 18:03:21;;;;;;;50.80;28.50;;;;;;;-0.52;89.06;96940.85;226667;1272;22533;-75
2024/01/18 18:08:23;;;;;;;53.50;30.80;;;;;;;-0.56;89.36;96960.00;226674;1276;22542;-76
2024/01/18 18:13:28;;;;;;;55.10;30.90;;;;;;;-0.58;89.33;96954.81;226516;1259;22631;-76
2024/01/18 18:18:32;;;;;;;38.60;22.00;;;;;;;-0.60;89.11;96967.80;226631;1274;22645;-75
2024/01/18 18:23:36;;;;;;;28.50;16.10;;;;;;;-0.64;89.20;96989.03;226615;1271;22542;-74
2024/01/18 18:28:38;;;;;;;23.60;13.60;;;;;;;-0.71;89.16;96997.64;226424;1274;22553;-76
2024/01/18 18:33:40;;;;;;;21.80;12.50;;;;;;;-0.78;89.20;97014.86;226673;1271;22614;-77
2024/01/18 18:38:42;;;;;;;25.80;15.00;;;;;;;-0.86;88.64;97031.71;226598;1276;22549;-77
2024/01/18 18:43:46;;;;;;;24.40;15.10;;;;;;;-0.91;88.92;97047.15;226396;1276;22602;-75
2024/01/18 18:48:49;;;;;;;30.10;17.20;;;;;;;-0.94;89.31;97054.35;226625;1271;22573;-75
2024/01/18 18:53:51;;;;;;;31.30;17.90;;;;;;;-0.97;89.22;97070.25;226632;1268;22564;-75
2024/01/18 18:58:56;;;;;;;33.60;19.30;;;;;;;-1.01;89.13;97076.55;226428;1275;24216;-75
2024/01/18 19:03:58;;;;;;;37.20;21.80;;;;;;;-1.04;89.07;97087.41;226495;1275;22567;-76
2024/01/18 19:09:00;;;;;;;36.90;21.30;;;;;;;-1.06;89.11;97097.58;226431;1276;22553;-76
2024/01/18 19:14:02;;;;;;;41.40;24.20;;;;;;;-1.06;89.51;97116.30;226682;1274;22531;-76
2024/01/18 19:19:04;;;;;;;44.40;24.90;;;;;;;-1.05;89.33;97121.36;226658;1274;22550;-76
2024/01/18 19:24:09;;;;;;;40.80;23.00;;;;;;;-1.04;89.50;97130.44;226648;1273;22573;-75
2024/01/18 19:29:11;;;;;;;41.80;24.80;;;;;;;-1.05;89.13;97146.22;226646;1274;22545;-75
2024/01/18 19:34:13;;;;;;;42.80;26.10;;;;;;;-1.09;89.00;97165.90;226454;1276;22621;-76
2024/01/18 19:39:16;;;;;;;51.10;28.90;;;;;;;-1.13;88.91;97178.63;226691;1273;22542;-74
2024/01/18 19:44:18;;;;;;;45.80;28.70;;;;;;;-1.17;89.00;97183.89;226669;1260;22546;-75
2024/01/18 19:49:20;;;;;;;44.70;26.00;;;;;;;-1.21;88.66;97203.67;226652;1271;22560;-74
2024/01/18 19:54:24;;;;;;;44.90;26.90;;;;;;;-1.28;88.93;97223.66;226508;1272;228122;-74
2024/01/18 19:59:28;;;;;;;49.40;28.50;;;;;;;-1.31;88.82;97240.08;226614;1258;22582;-75
2024/01/18 20:04:37;;;;;;;51.30;29.30;;;;;;;-1.33;89.14;97260.99;226627;1271;22549;-75
2024/01/18 20:09:40;;;;;;;48.50;28.40;;;;;;;-1.36;89.04;97276.95;226650;1274;22546;-74
2024/01/18 20:14:42;;;;;;;46.10;28.20;;;;;;;-1.38;89.15;97284.60;226644;1274;24737;-75
2024/01/18 20:19:44;;;;;;;50.40;30.10;;;;;;;-1.39;89.20;97293.20;226383;1276;22561;-75
2024/01/18 20:24:48;;;;;;;45.90;27.70;;;;;;;-1.39;89.19;97311.98;226618;1276;22553;-75
2024/01/18 20:29:51;;;;;;;45.10;26.50;;;;;;;-1.40;89.13;97324.52;226666;1274;22561;-76
2024/01/18 20:34:54;;;;;;;44.90;26.80;;;;;;;-1.41;88.87;97336.02;226657;1274;22664;-76
2024/01/18 20:39:57;;;;;;;47.60;27.50;;;;;;;-1.42;89.16;97351.77;226572;1276;22648;-75
2024/01/18 20:45:00;;;;;;;41.50;25.20;;;;;;;-1.43;89.00;97377.62;226456;1274;24887;-75
2024/01/18 20:50:02;;;;;;;44.90;26.70;;;;;;;-1.42;89.18;97388.02;226663;1276;22559;-75
2024/01/18 20:55:04;;;;;;;43.40;26.60;;;;;;;-1.40;89.13;97387.52;226575;1272;22550;-76
2024/01/18 21:00:07;;;;;;;48.60;27.90;;;;;;;-1.39;89.11;97397.09;226608;1274;22539;-75
2024/01/18 21:05:16;;;;;;;48.30;29.40;;;;;;;-1.39;88.94;97412.41;226436;1276;22570;-75
2024/01/18 21:10:18;;;;;;;47.50;27.30;;;;;;;-1.38;88.73;97417.41;226644;1271;22543;-75
2024/01/18 21:15:21;;;;;;;44.80;26.80;;;;;;;-1.37;89.02;97421.30;226581;1272;22578;-75
2024/01/18 21:20:23;;;;;;;51.10;29.60;;;;;;;-1.39;88.78;97437.80;226605;1274;23829;-76
2024/01/18 21:25:25;;;;;;;50.00;27.80;;;;;;;-1.37;89.23;97454.42;226652;1274;22577;-75
2024/01/18 21:30:27;;;;;;;49.80;28.70;;;;;;;-1.37;89.15;97477.87;226633;1271;22549;-76
2024/01/18 21:35:31;;;;;;;46.90;27.40;;;;;;;-1.36;89.10;97483.33;226639;1274;24357;-76
2024/01/18 21:40:34;;;;;;;47.10;28.60;;;;;;;-1.36;89.02;97499.36;226654;1274;22678;-76
2024/01/18 21:45:36;;;;;;;49.50;28.00;;;;;;;-1.36;88.77;97510.59;226558;1274;22596;-75
2024/01/18 21:50:39;;;;;;;51.10;29.00;;;;;;;-1.34;89.20;97527.35;226624;1271;25519;-76
2024/01/18 21:55:42;;;;;;;47.70;28.60;;;;;;;-1.33;88.80;97542.27;226422;1264;22560;-75
2024/01/18 22:00:44;;;;;;;45.20;27.70;;;;;;;-1.32;89.03;97552.32;226569;1272;22581;-75
2024/01/18 22:05:46;;;;;;;46.60;28.90;;;;;;;-1.30;89.17;97570.86;226662;1272;22648;-76
2024/01/18 22:10:48;;;;;;;49.30;29.40;;;;;;;-1.29;88.92;97579.17;226658;1270;25388;-75
2024/01/18 22:15:51;;;;;;;47.10;28.70;;;;;;;-1.29;88.81;97584.92;226641;1272;23312;-77
2024/01/18 22:20:54;;;;;;;49.60;27.30;;;;;;;-1.30;88.72;97600.88;226628;1274;25430;-76
2024/01/18 22:25:56;;;;;;;50.80;27.90;;;;;;;-1.30;88.99;97607.77;226634;1276;22546;-75
2024/01/18 22:30:58;;;;;;;46.50;28.30;;;;;;;-1.29;88.97;97627.73;226649;1276;22563;-75
2024/01/18 22:36:02;;;;;;;46.30;27.60;;;;;;;-1.31;88.82;97629.78;226569;1272;22574;-75
2024/01/18 22:41:04;;;;;;;44.40;25.60;;;;;;;-1.32;88.81;97647.55;226623;1276;22561;-75
2024/01/18 22:46:06;;;;;;;45.60;26.60;;;;;;;-1.30;88.94;97657.22;226617;1276;22549;-76
2024/01/18 22:51:08;;;;;;;44.40;24.90;;;;;;;-1.29;88.79;97670.55;226662;1273;22559;-75
2024/01/18 22:56:10;;;;;;;43.00;25.20;;;;;;;-1.30;88.55;97679.94;226661;1273;22547;-74
2024/01/18 23:01:13;;;;;;;42.30;26.60;;;;;;;-1.30;88.82;97702.38;226656;1276;22603;-76
2024/01/18 23:06:15;;;;;;;43.90;25.60;;;;;;;-1.29;88.75;97715.44;226642;1260;22552;-75
2024/01/18 23:11:17;;;;;;;41.00;23.70;;;;;;;-1.29;88.72;97709.39;226468;1276;22578;-75
2024/01/18 23:16:20;;;;;;;37.70;22.60;;;;;;;-1.30;88.62;97715.68;226441;1276;22564;-75